createdAt,value
2023-04-29T00:01:32.607Z,66.19
2023-04-29T00:03:59.780Z,66.28
2023-04-29T00:06:28.653Z,66.44
2023-04-29T00:08:55.737Z,66.88
2023-04-29T00:11:22.685Z,67.08
2023-04-29T00:13:49.754Z,67.22
2023-04-29T00:16:17.954Z,67.46
2023-04-29T00:18:44.999Z,67.82
2023-04-29T00:21:12.232Z,67.64
2023-04-29T00:23:39.414Z,67.99
2023-04-29T00:26:06.418Z,68.07
2023-04-29T00:28:33.416Z,68.30
2023-04-29T00:31:00.726Z,68.51
2023-04-29T00:33:27.775Z,68.60
2023-04-29T00:35:54.803Z,68.86
2023-04-29T00:38:21.903Z,69.03
2023-04-29T00:40:49.011Z,69.24
2023-04-29T00:43:16.257Z,69.33
2023-04-29T00:45:45.868Z,69.36
2023-04-29T00:48:15.380Z,69.69
2023-04-29T00:50:42.465Z,69.83
2023-04-29T00:53:10.139Z,70.49
2023-04-29T00:55:37.236Z,70.52
2023-04-29T00:58:04.469Z,70.60
2023-04-29T01:00:31.510Z,70.88
2023-04-29T01:02:59.848Z,70.83
2023-04-29T01:05:27.119Z,71.53
2023-04-29T01:20:55.689Z,71.37
2023-04-29T01:23:29.513Z,71.20
2023-04-29T01:25:57.106Z,71.41
2023-04-29T01:28:56.151Z,71.52
2023-04-29T01:31:28.304Z,71.60
2023-04-29T01:34:00.176Z,72.05
2023-04-29T01:36:35.643Z,72.23
2023-04-29T01:39:28.662Z,72.91
2023-04-29T01:42:22.245Z,73.50
2023-04-29T01:44:49.856Z,73.81
2023-04-29T01:47:19.232Z,74.22
2023-04-29T01:49:49.908Z,74.57
2023-04-29T01:52:16.730Z,75.18
2023-04-29T01:54:51.388Z,75.24
2023-04-29T01:57:18.411Z,75.66
2023-04-29T01:59:59.446Z,76.00
2023-04-29T02:02:42.977Z,76.50
2023-04-29T02:05:19.331Z,76.79
2023-04-29T02:07:54.058Z,77.27
2023-04-29T02:10:20.917Z,77.43
2023-04-29T02:12:49.041Z,78.02
2023-04-29T02:15:16.040Z,78.33
2023-04-29T02:17:42.803Z,78.65
2023-04-29T02:20:10.506Z,78.60
2023-04-29T02:22:37.262Z,79.28
2023-04-29T02:25:04.151Z,79.33
2023-04-29T02:27:31.697Z,79.57
2023-04-29T02:29:59.011Z,79.79
2023-04-29T02:32:25.857Z,80.24
2023-04-29T02:34:52.829Z,80.50
2023-04-29T02:37:19.582Z,80.74
2023-04-29T02:39:47.118Z,80.99
2023-04-29T02:42:13.955Z,81.35
2023-04-29T02:44:41.716Z,81.77
2023-04-29T02:47:08.901Z,82.14
2023-04-29T02:49:35.747Z,82.46
2023-04-29T02:52:02.795Z,83.00
2023-04-29T02:54:29.672Z,83.16
2023-04-29T02:56:56.369Z,83.69
2023-04-29T02:59:23.141Z,83.79
2023-04-29T03:01:50.300Z,84.25
2023-04-29T03:04:17.224Z,84.85
2023-04-29T03:06:44.426Z,85.17
2023-04-29T03:09:12.592Z,85.62
2023-04-29T03:11:39.519Z,85.87
2023-04-29T03:14:06.298Z,86.23
2023-04-29T03:16:33.289Z,86.53
2023-04-29T03:19:00.037Z,86.66
2023-04-29T03:21:27.760Z,86.86
2023-04-29T03:23:54.718Z,87.05
2023-04-29T03:26:26.070Z,87.47
2023-04-29T03:28:52.857Z,87.62
2023-04-29T03:31:21.381Z,88.04
2023-04-29T03:33:48.181Z,88.38
2023-04-29T03:36:15.523Z,88.50
2023-04-29T03:38:51.541Z,88.58
2023-04-29T03:41:18.446Z,88.52
2023-04-29T03:43:45.275Z,88.86
2023-04-29T03:46:12.033Z,88.67
2023-04-29T03:48:38.842Z,88.57
2023-04-29T03:51:05.620Z,88.53
2023-04-29T03:53:33.008Z,88.51
2023-04-29T03:56:00.251Z,88.30
2023-04-29T03:58:27.205Z,88.13
2023-04-29T04:00:54.890Z,88.26
2023-04-29T04:03:23.322Z,88.21
2023-04-29T04:05:50.447Z,87.98
2023-04-29T04:08:17.191Z,87.79
2023-04-29T04:10:52.237Z,87.26
2023-04-29T04:13:26.133Z,87.30
2023-04-29T04:15:52.898Z,87.17
2023-04-29T04:18:19.615Z,86.85
2023-04-29T04:20:46.300Z,86.81
2023-04-29T04:23:13.716Z,86.80
2023-04-29T04:25:46.606Z,86.59
2023-04-29T04:28:32.633Z,86.17
2023-04-29T04:31:05.293Z,85.55
2023-04-29T04:33:34.868Z,85.02
2023-04-29T04:36:01.863Z,83.80
2023-04-29T04:38:28.737Z,82.91
2023-04-29T04:40:56.115Z,82.59
2023-04-29T04:43:32.980Z,81.41
2023-04-29T04:45:59.779Z,80.51
2023-04-29T04:48:26.741Z,79.19
2023-04-29T04:50:53.680Z,78.47
2023-04-29T04:53:20.709Z,77.46
2023-04-29T04:55:51.808Z,75.38
2023-04-29T04:58:18.669Z,73.88
2023-04-29T05:00:45.917Z,72.12
2023-04-29T05:03:15.832Z,71.76
2023-04-29T05:05:45.004Z,71.16
2023-04-29T05:08:11.991Z,68.26
2023-04-29T05:10:44.701Z,66.95
2023-04-29T05:13:12.622Z,66.42
2023-04-29T05:15:39.690Z,64.38
2023-04-29T05:18:06.635Z,57.62
2023-04-29T05:20:33.780Z,56.03
2023-04-29T05:23:02.161Z,55.82
2023-04-29T05:25:30.469Z,55.02
2023-04-29T05:27:57.357Z,54.14
2023-04-29T05:30:25.111Z,53.62
2023-04-29T05:32:52.024Z,52.64
2023-04-29T05:35:19.542Z,51.46
2023-04-29T05:37:46.717Z,50.25
2023-04-29T05:40:28.199Z,50.07
2023-04-29T05:43:03.411Z,49.41
2023-04-29T05:45:30.219Z,48.47
2023-04-29T05:47:57.088Z,47.27
2023-04-29T05:50:26.328Z,44.93
2023-04-29T05:52:54.715Z,45.07
2023-04-29T05:55:22.322Z,44.23
2023-04-29T05:57:49.333Z,44.40
2023-04-29T06:00:16.742Z,45.05
2023-04-29T06:02:57.296Z,44.84
2023-04-29T06:05:27.054Z,45.30
2023-04-29T06:08:10.810Z,43.58
2023-04-29T06:11:05.588Z,41.94
2023-04-29T06:13:33.108Z,39.92
2023-04-29T06:15:59.954Z,38.08
2023-04-29T06:18:30.067Z,38.57
2023-04-29T06:20:58.119Z,38.06
2023-04-29T06:23:24.941Z,37.85
2023-04-29T06:25:53.117Z,38.00
2023-04-29T06:28:21.215Z,39.47
2023-04-29T06:30:47.900Z,38.75
2023-04-29T06:33:15.009Z,38.67
2023-04-29T06:35:42.077Z,38.83
2023-04-29T06:38:29.080Z,38.70
2023-04-29T06:41:21.146Z,38.07
2023-04-29T06:43:53.715Z,36.91
2023-04-29T06:46:39.472Z,35.80
2023-04-29T06:49:19.292Z,34.99
2023-04-29T06:51:48.259Z,35.39
2023-04-29T06:54:15.032Z,35.45
2023-04-29T06:56:42.068Z,35.00
2023-04-29T06:59:10.754Z,35.77
2023-04-29T07:01:37.728Z,33.92
2023-04-29T07:04:05.375Z,32.88
2023-04-29T07:06:33.815Z,33.13
2023-04-29T07:09:00.559Z,33.27
2023-04-29T07:11:27.781Z,33.44
2023-04-29T07:13:54.591Z,32.55
2023-04-29T07:16:22.185Z,33.17
2023-04-29T07:18:49.601Z,32.98
2023-04-29T07:21:16.371Z,32.12
2023-04-29T07:23:43.428Z,32.62
2023-04-29T07:26:11.730Z,32.67
2023-04-29T07:28:38.529Z,32.31
2023-04-29T07:31:06.386Z,32.82
2023-04-29T07:33:34.040Z,32.54
2023-04-29T07:36:01.062Z,32.33
2023-04-29T07:38:27.987Z,32.15
2023-04-29T07:40:54.894Z,32.57
2023-04-29T07:43:24.141Z,31.85
2023-04-29T07:45:51.248Z,32.33
2023-04-29T07:48:18.106Z,31.28
2023-04-29T07:50:44.941Z,32.06
2023-04-29T07:53:12.098Z,30.73
2023-04-29T07:55:38.937Z,30.36
2023-04-29T07:58:06.080Z,29.71
2023-04-29T08:00:33.617Z,30.63
2023-04-29T08:03:00.726Z,30.97
2023-04-29T08:05:28.355Z,29.43
2023-04-29T08:07:55.473Z,29.27
2023-04-29T08:10:25.084Z,30.04
2023-04-29T08:12:51.988Z,28.73
2023-04-29T08:15:18.736Z,29.62
2023-04-29T08:17:46.017Z,28.89
2023-04-29T08:20:13.372Z,29.16
2023-04-29T08:22:40.204Z,29.83
2023-04-29T08:25:07.819Z,29.47
2023-04-29T08:27:34.646Z,28.26
2023-04-29T08:30:01.491Z,28.73
2023-04-29T08:32:28.326Z,28.79
2023-04-29T08:34:55.365Z,29.05
2023-04-29T08:37:22.547Z,27.72
2023-04-29T08:39:49.390Z,27.02
2023-04-29T08:42:16.218Z,27.78
2023-04-29T08:44:42.994Z,27.99
2023-04-29T08:47:09.778Z,28.47
2023-04-29T08:49:38.302Z,28.32
2023-04-29T08:52:05.469Z,28.66
2023-04-29T08:54:32.996Z,28.07
2023-04-29T08:56:59.898Z,27.60
2023-04-29T08:59:26.708Z,28.11
2023-04-29T09:01:53.724Z,28.00
2023-04-29T09:04:46.369Z,28.17
2023-04-29T09:07:13.443Z,28.57
2023-04-29T09:09:40.355Z,28.61
2023-04-29T09:12:07.676Z,28.03
2023-04-29T09:14:34.702Z,27.34
2023-04-29T09:17:01.543Z,26.79
2023-04-29T09:19:35.708Z,27.03
2023-04-29T09:22:03.506Z,28.18
2023-04-29T09:24:30.969Z,28.05
2023-04-29T09:26:58.775Z,27.73
2023-04-29T09:29:25.664Z,26.33
2023-04-29T09:31:53.811Z,24.53
2023-04-29T09:34:36.250Z,25.15
2023-04-29T09:37:03.087Z,26.85
2023-04-29T09:39:38.663Z,27.79
2023-04-29T09:42:05.909Z,28.18
2023-04-29T09:44:36.035Z,28.78
2023-04-29T09:47:06.677Z,28.93
2023-04-29T09:49:38.530Z,27.44
2023-04-29T09:52:18.373Z,27.78
2023-04-29T09:54:45.337Z,27.33
2023-04-29T09:57:12.795Z,26.51
2023-04-29T09:59:40.388Z,25.87
2023-04-29T10:02:12.420Z,25.96
2023-04-29T10:04:40.397Z,26.25
2023-04-29T10:07:07.814Z,26.83
2023-04-29T10:09:34.692Z,28.22
2023-04-29T10:12:02.395Z,28.50
2023-04-29T10:14:29.235Z,28.03
2023-04-29T10:17:00.255Z,27.98
2023-04-29T10:19:34.469Z,27.28
2023-04-29T10:22:06.277Z,27.41
2023-04-29T10:24:33.082Z,28.04
2023-04-29T10:26:59.937Z,27.82
2023-04-29T10:29:27.525Z,28.49
2023-04-29T10:31:54.509Z,28.13
2023-04-29T10:34:21.989Z,28.43
2023-04-29T10:36:48.959Z,28.58
2023-04-29T10:39:24.422Z,28.70
2023-04-29T10:41:51.221Z,29.10
2023-04-29T10:44:18.119Z,30.06
2023-04-29T10:46:44.970Z,30.04
2023-04-29T10:49:12.018Z,29.29
2023-04-29T10:51:43.761Z,28.49
2023-04-29T10:54:17.418Z,29.66
2023-04-29T10:56:49.480Z,30.17
2023-04-29T10:59:36.703Z,30.21
2023-04-29T11:02:03.550Z,29.05
2023-04-29T11:04:30.462Z,29.63
2023-04-29T11:07:01.238Z,29.87
2023-04-29T11:09:29.205Z,29.68
2023-04-29T11:12:00.592Z,29.68
2023-04-29T11:14:36.840Z,30.50
2023-04-29T11:17:04.527Z,30.54
2023-04-29T11:19:33.182Z,29.29
2023-04-29T11:22:09.874Z,29.75
2023-04-29T11:24:37.095Z,31.08
2023-04-29T11:27:06.924Z,29.99
2023-04-29T11:29:33.720Z,29.82
2023-04-29T11:32:01.973Z,29.54
2023-04-29T11:34:28.788Z,30.06
2023-04-29T11:36:55.584Z,30.82
2023-04-29T11:39:22.313Z,30.19
2023-04-29T11:41:51.250Z,30.51
2023-04-29T11:44:25.315Z,30.88
2023-04-29T11:46:52.282Z,31.40
2023-04-29T11:49:19.203Z,30.93
2023-04-29T11:51:46.084Z,30.85
2023-04-29T11:54:12.908Z,31.31
2023-04-29T11:56:39.747Z,31.06
2023-04-29T11:59:08.295Z,31.41
2023-04-29T12:01:36.163Z,31.14
2023-04-29T12:04:04.125Z,30.92
2023-04-29T12:06:31.778Z,31.66
2023-04-29T12:08:59.931Z,32.14
2023-04-29T12:11:26.937Z,31.70
2023-04-29T12:13:54.081Z,31.18
2023-04-29T12:16:20.902Z,31.59
2023-04-29T12:18:47.791Z,31.66
2023-04-29T12:21:14.690Z,31.24
2023-04-29T12:23:41.582Z,31.41
2023-04-29T12:26:09.148Z,30.64
2023-04-29T12:28:36.386Z,30.41
2023-04-29T12:31:03.499Z,30.17
2023-04-29T12:33:30.475Z,30.26
2023-04-29T12:35:58.586Z,30.46
2023-04-29T12:38:30.900Z,30.41
2023-04-29T12:41:05.582Z,31.04
2023-04-29T12:43:33.868Z,30.97
2023-04-29T12:46:08.165Z,32.01
2023-04-29T12:48:38.203Z,31.08
2023-04-29T12:51:05.341Z,31.25
2023-04-29T12:53:32.746Z,30.81
2023-04-29T12:55:59.719Z,30.55
2023-04-29T12:58:30.748Z,30.67
2023-04-29T13:00:57.949Z,31.33
2023-04-29T13:03:25.437Z,31.76
2023-04-29T13:05:55.060Z,31.61
2023-04-29T13:08:23.136Z,31.76
2023-04-29T13:10:50.238Z,30.86
2023-04-29T13:13:17.091Z,30.86
2023-04-29T13:15:43.851Z,31.10
2023-04-29T13:18:10.828Z,30.93
2023-04-29T13:20:41.528Z,31.16
2023-04-29T13:23:09.931Z,32.01
2023-04-29T13:25:36.743Z,32.91
2023-04-29T13:28:05.804Z,31.88
2023-04-29T13:30:33.322Z,31.37
2023-04-29T13:33:08.746Z,31.40
2023-04-29T13:35:40.426Z,32.42
2023-04-29T13:38:10.515Z,32.49
2023-04-29T13:40:42.320Z,32.05
2023-04-29T13:43:15.807Z,32.15
2023-04-29T13:45:49.740Z,32.58
2023-04-29T13:48:45.273Z,31.70
2023-04-29T13:54:16.962Z,31.95
2023-04-29T13:59:37.152Z,30.56
2023-04-29T14:04:10.313Z,30.35
2023-04-29T14:06:37.337Z,30.63
2023-04-29T14:09:04.453Z,30.67
2023-04-29T14:11:31.950Z,30.74
2023-04-29T14:13:58.981Z,30.95
2023-04-29T14:16:26.049Z,30.98
2023-04-29T14:18:53.256Z,30.37
2023-04-29T14:21:22.752Z,30.45
2023-04-29T14:23:50.403Z,30.85
2023-04-29T14:26:27.797Z,31.03
2023-04-29T14:28:59.836Z,31.86
2023-04-29T14:31:30.811Z,30.70
2023-04-29T14:33:58.041Z,30.59
2023-04-29T14:36:25.395Z,30.27
2023-04-29T14:38:52.662Z,30.39
2023-04-29T14:41:21.476Z,30.40
2023-04-29T14:43:51.880Z,30.06
2023-04-29T14:46:18.922Z,29.37
2023-04-29T14:48:46.352Z,29.36
2023-04-29T14:51:13.244Z,29.83
2023-04-29T14:53:40.169Z,30.04
2023-04-29T14:56:08.218Z,30.30
2023-04-29T14:58:35.147Z,30.72
2023-04-29T15:01:02.071Z,30.59
2023-04-29T15:03:29.212Z,30.77
2023-04-29T15:05:56.546Z,30.77
2023-04-29T15:08:23.685Z,30.33
2023-04-29T15:10:50.705Z,30.27
2023-04-29T15:13:17.575Z,30.21
2023-04-29T15:15:44.333Z,30.37
2023-04-29T15:18:11.245Z,30.16
2023-04-29T15:20:38.223Z,30.26
2023-04-29T15:23:05.665Z,30.72
2023-04-29T15:25:36.273Z,30.58
2023-04-29T15:28:05.927Z,30.78
2023-04-29T15:30:33.033Z,30.74
2023-04-29T15:33:00.198Z,30.23
2023-04-29T15:35:27.763Z,29.88
2023-04-29T15:37:54.664Z,29.82
2023-04-29T15:40:21.627Z,30.19
2023-04-29T15:42:48.582Z,30.45
2023-04-29T15:45:15.437Z,30.45
2023-04-29T15:47:42.372Z,30.37
2023-04-29T15:50:12.113Z,30.62
2023-04-29T15:52:38.957Z,30.44
2023-04-29T15:55:06.698Z,30.47
2023-04-29T15:57:34.866Z,30.49
2023-04-29T16:00:01.838Z,30.77
2023-04-29T16:02:28.790Z,30.80
2023-04-29T16:04:55.885Z,30.84
2023-04-29T16:07:22.779Z,31.11
2023-04-29T16:09:49.637Z,31.23
2023-04-29T16:12:16.676Z,31.49
2023-04-29T16:14:43.680Z,31.83
2023-04-29T16:17:10.648Z,31.88
2023-04-29T16:19:37.583Z,32.31
2023-04-29T16:22:04.721Z,32.43
2023-04-29T16:24:31.574Z,32.47
2023-04-29T16:26:59.495Z,32.59
2023-04-29T16:29:26.431Z,32.72
2023-04-29T16:31:53.428Z,32.78
2023-04-29T16:34:20.538Z,32.75
2023-04-29T16:36:47.559Z,33.11
2023-04-29T16:39:14.671Z,32.99
2023-04-29T16:41:46.447Z,33.34
2023-04-29T16:44:13.489Z,33.46
2023-04-29T16:46:40.549Z,33.50
2023-04-29T16:49:07.923Z,33.60
2023-04-29T16:51:34.765Z,33.73
2023-04-29T16:54:01.939Z,33.96
2023-04-29T16:56:29.049Z,34.31
2023-04-29T16:58:55.856Z,34.43
2023-04-29T17:01:22.738Z,35.09
2023-04-29T17:03:49.706Z,35.16
2023-04-29T17:06:16.555Z,35.18
2023-04-29T17:08:44.456Z,34.97
2023-04-29T17:11:11.763Z,35.51
2023-04-29T17:13:38.776Z,35.56
2023-04-29T17:16:06.384Z,35.69
2023-04-29T17:18:33.328Z,35.69
2023-04-29T17:21:00.378Z,35.50
2023-04-29T17:23:27.893Z,35.46
2023-04-29T17:25:55.747Z,35.52
2023-04-29T17:28:23.621Z,35.50
2023-04-29T17:30:51.538Z,35.88
2023-04-29T17:33:18.348Z,36.30
2023-04-29T17:35:46.404Z,36.25
2023-04-29T17:38:13.271Z,36.06
2023-04-29T17:40:40.067Z,36.49
2023-04-29T17:43:06.974Z,36.59
2023-04-29T17:45:34.036Z,36.79
2023-04-29T17:48:01.104Z,37.16
2023-04-29T17:50:28.081Z,37.83
2023-04-29T17:52:55.038Z,37.48
2023-04-29T17:55:22.009Z,37.64
2023-04-29T17:57:48.946Z,37.23
2023-04-29T18:00:16.421Z,37.56
2023-04-29T18:02:43.293Z,38.09
2023-04-29T18:05:10.335Z,38.17
2023-04-29T18:07:37.188Z,38.22
2023-04-29T18:10:05.973Z,38.46
2023-04-29T18:12:33.189Z,39.12
2023-04-29T18:15:00.875Z,39.97
2023-04-29T18:17:27.765Z,40.78
2023-04-29T18:19:55.153Z,41.22
2023-04-29T18:22:22.168Z,41.73
2023-04-29T18:24:49.887Z,41.68
2023-04-29T18:27:16.873Z,42.33
2023-04-29T18:29:45.143Z,42.83
2023-04-29T18:32:12.319Z,43.51
2023-04-29T18:34:39.193Z,43.43
2023-04-29T18:37:06.654Z,43.43
2023-04-29T18:39:33.913Z,43.19
2023-04-29T18:42:00.918Z,43.62
2023-04-29T18:44:28.147Z,43.79
2023-04-29T18:46:55.085Z,43.90
2023-04-29T18:49:22.075Z,44.18
2023-04-29T18:51:49.943Z,44.59
2023-04-29T18:54:17.882Z,44.71
2023-04-29T18:56:48.870Z,44.68
2023-04-29T18:59:21.738Z,44.89
2023-04-29T19:01:48.781Z,44.89
2023-04-29T19:04:16.365Z,44.85
2023-04-29T19:06:43.597Z,45.43
2023-04-29T19:09:11.469Z,45.50
2023-04-29T19:11:38.413Z,45.54
2023-04-29T19:14:06.150Z,45.90
2023-04-29T19:16:35.547Z,46.64
2023-04-29T19:19:04.312Z,47.05
2023-04-29T19:21:34.753Z,47.29
2023-04-29T19:24:01.629Z,47.37
2023-04-29T19:26:29.586Z,47.50
2023-04-29T19:28:57.265Z,47.74
2023-04-29T19:31:24.192Z,48.02
2023-04-29T19:33:52.460Z,48.17
2023-04-29T19:36:19.350Z,48.59
2023-04-29T19:38:47.066Z,48.60
2023-04-29T19:41:13.960Z,48.64
2023-04-29T19:43:40.865Z,48.65
2023-04-29T19:46:07.887Z,48.72
2023-04-29T19:48:34.898Z,49.15
2023-04-29T19:51:01.905Z,49.28
2023-04-29T19:53:30.131Z,49.49
2023-04-29T19:55:57.111Z,49.66
2023-04-29T19:58:24.766Z,49.87
2023-04-29T20:00:54.080Z,50.11
2023-04-29T20:03:21.807Z,50.37
2023-04-29T20:05:48.828Z,50.33
2023-04-29T20:08:15.717Z,50.18
2023-04-29T20:10:42.660Z,50.28
2023-04-29T20:13:09.527Z,50.25
2023-04-29T20:15:36.493Z,50.45
2023-04-29T20:18:03.446Z,50.68
2023-04-29T20:20:30.527Z,50.88
2023-04-29T20:23:00.415Z,51.00
2023-04-29T20:25:28.566Z,51.03
2023-04-29T20:27:55.461Z,50.89
2023-04-29T20:30:22.421Z,50.85
2023-04-29T20:32:49.230Z,51.11
2023-04-29T20:35:16.611Z,51.01
2023-04-29T20:37:43.432Z,51.31
2023-04-29T20:40:10.643Z,51.56
2023-04-29T20:42:37.451Z,51.71
2023-04-29T20:45:06.292Z,52.19
2023-04-29T20:47:35.420Z,52.20
2023-04-29T20:50:03.745Z,51.88
2023-04-29T20:52:31.000Z,52.34
2023-04-29T20:54:58.937Z,51.99
2023-04-29T20:57:25.878Z,52.00
2023-04-29T20:59:52.934Z,51.70
2023-04-29T21:02:20.452Z,51.71
2023-04-29T21:04:47.456Z,51.58
2023-04-29T21:07:14.572Z,51.61
2023-04-29T21:09:41.606Z,52.01
2023-04-29T21:12:08.505Z,52.16
2023-04-29T21:14:35.684Z,52.39
2023-04-29T21:17:02.521Z,52.09
2023-04-29T21:19:29.387Z,52.45
2023-04-29T21:21:56.606Z,52.46
2023-04-29T21:24:23.587Z,52.40
2023-04-29T21:26:50.588Z,52.87
2023-04-29T21:29:17.506Z,52.99
2023-04-29T21:31:44.393Z,53.60
2023-04-29T21:34:11.374Z,53.58
2023-04-29T21:36:38.224Z,53.45
2023-04-29T21:39:06.461Z,53.44
2023-04-29T21:41:37.566Z,53.34
2023-04-29T21:44:04.455Z,53.18
2023-04-29T21:46:33.271Z,53.14
2023-04-29T21:49:00.295Z,53.34
2023-04-29T21:51:28.362Z,53.53
2023-04-29T21:53:55.257Z,53.82
2023-04-29T21:56:24.650Z,52.95
2023-04-29T21:58:52.860Z,52.94
2023-04-29T22:01:38.392Z,53.02
2023-04-29T22:04:05.340Z,53.40
2023-04-29T22:06:33.629Z,53.75
2023-04-29T22:09:00.571Z,53.91
2023-04-29T22:11:27.539Z,53.98
2023-04-29T22:13:54.413Z,53.93
2023-04-29T22:16:23.522Z,53.55
2023-04-29T22:18:51.325Z,53.75
2023-04-29T22:21:18.510Z,53.34
2023-04-29T22:23:45.738Z,53.70
2023-04-29T22:26:12.563Z,53.19
2023-04-29T22:28:39.430Z,52.78
2023-04-29T22:31:06.654Z,52.73
2023-04-29T22:36:02.217Z,52.01
2023-04-29T22:38:29.647Z,51.83
2023-04-29T22:40:56.543Z,52.38
2023-04-29T22:43:23.398Z,52.77
2023-04-29T22:45:54.118Z,52.68
2023-04-29T22:48:21.244Z,52.58
2023-04-29T22:50:52.053Z,52.48
2023-04-29T22:53:19.485Z,52.27
2023-04-29T22:55:53.409Z,52.72
2023-04-29T22:58:20.576Z,52.81
2023-04-29T23:00:51.056Z,52.81
2023-04-29T23:03:18.250Z,52.65
2023-04-29T23:05:45.190Z,52.61
2023-04-29T23:08:12.114Z,52.66
2023-04-29T23:10:38.987Z,52.55
2023-04-29T23:13:06.226Z,52.56
2023-04-29T23:15:33.246Z,52.48
2023-04-29T23:18:00.193Z,52.74
2023-04-29T23:20:27.131Z,53.03
2023-04-29T23:22:54.031Z,53.39
2023-04-29T23:25:21.080Z,53.58
2023-04-29T23:27:47.912Z,53.80
2023-04-29T23:30:14.706Z,53.72
2023-04-29T23:32:41.614Z,53.57
2023-04-29T23:35:11.424Z,54.19
2023-04-29T23:37:39.017Z,53.59
2023-04-29T23:40:07.099Z,54.21
2023-04-29T23:42:33.944Z,54.11
2023-04-29T23:45:01.055Z,54.02
2023-04-29T23:47:27.921Z,53.61
2023-04-29T23:49:55.174Z,53.94
2023-04-29T23:52:22.202Z,54.03
2023-04-29T23:54:48.994Z,54.37
2023-04-29T23:57:15.847Z,53.82
2023-04-29T23:59:42.776Z,53.78
